Accueil
METAR-TAF:

METAR-TAF

Aéroports :

Tunis, Tunisie

Aéroport international de Tunis-Carthage

latitude: 36-50N, longitude: 010-14E, altitude: 3 m

Observation

Le bulletin a été fait il y a 16 minutes, à 02:00 UTC
Vent 3 kt de est
Température 17°C
Humidité 88%
Pression 1018 hPa
Visibilité 10 km ou plus
Quelques nuages à une hauteur de 3300 ft

METAR: DTTA 240200Z 10003KT 9999 FEW033 17/15 Q1018 NOSIG

Heure: 03:16 (02:16 UTC)

Prévision

Le bulletin a été fait il y a 3 heures et 15 minutes, à 23:01 UTC
Prévision valable du 24 à 00 UTC au 24 à 24 UTC
Vent 3 kt de direction variable
Visibilité: 8000 m
Quelques nuages à une hauteur de 3000 ft
Probabilité 40% :
Temporairement
du 24 à 02 UTC au 24 à 06 UTC
Visibilité: 4000 m
Nuages épars à une hauteur de 1000 ft
brume

TAF: DTTA 232301Z 2400/2424 VRB03KT 8000 FEW030 PROB40 TEMPO 2402/2406 4000 BR SCT010

Observations et prévisions météorologiques de plus de 4000 aéroports (messages METAR et TAF).

Les stations disponibles sont représentées par des disques jaunes et rouges sur la carte.

Passer la souris dessus pour voir le nom de la station.

Cliquer dessus pour voir les observations et prévisions météorologiques.

Pour changer de carte: cliquez sur les boutons verts avec une croix noire pour zoomer, sur le bouton vert avec un tiret pour effectuer un zoom arrière, ou sur les flèches vertes pour les cartes adjacentes.


METAR-TAF: